createdAt,value
2018-06-24T00:00:45.231Z,14.30
2018-06-24T00:03:15.507Z,14.10
2018-06-24T00:05:45.425Z,14.10
2018-06-24T00:08:15.591Z,14.10
2018-06-24T00:10:46.402Z,14.00
2018-06-24T00:13:15.725Z,14.00
2018-06-24T00:15:44.808Z,14.00
2018-06-24T00:18:13.851Z,13.90
2018-06-24T00:20:42.994Z,13.80
2018-06-24T00:23:12.416Z,13.70
2018-06-24T00:25:42.058Z,13.60
2018-06-24T00:28:11.319Z,13.60
2018-06-24T00:30:41.356Z,13.50
2018-06-24T00:33:11.061Z,13.40
2018-06-24T00:35:40.629Z,13.30
2018-06-24T00:38:10.194Z,13.30
2018-06-24T00:40:39.957Z,13.30
2018-06-24T00:43:09.648Z,13.30
2018-06-24T00:45:39.204Z,13.30
2018-06-24T00:48:08.389Z,13.40
2018-06-24T00:50:37.380Z,13.40
2018-06-24T00:53:07.081Z,13.40
2018-06-24T00:55:36.600Z,13.40
2018-06-24T00:58:05.932Z,13.40
2018-06-24T01:00:35.180Z,13.50
2018-06-24T01:03:04.497Z,13.40
2018-06-24T01:05:34.392Z,13.50
2018-06-24T01:08:03.609Z,13.50
2018-06-24T01:10:32.602Z,13.50
2018-06-24T01:13:02.006Z,13.50
2018-06-24T01:15:31.189Z,13.60
2018-06-24T01:18:00.299Z,13.60
2018-06-24T01:20:29.558Z,13.50
2018-06-24T01:23:00.065Z,13.50
2018-06-24T01:25:29.752Z,13.50
2018-06-24T01:27:59.013Z,13.40
2018-06-24T01:30:28.333Z,13.40
2018-06-24T01:32:57.308Z,13.40
2018-06-24T01:35:26.328Z,13.30
2018-06-24T01:37:55.444Z,13.20
2018-06-24T01:40:24.708Z,13.20
2018-06-24T01:42:53.703Z,13.20
2018-06-24T01:45:22.948Z,13.30
2018-06-24T01:47:52.084Z,13.30
2018-06-24T01:50:21.089Z,13.30
2018-06-24T01:52:50.059Z,13.30
2018-06-24T01:55:19.537Z,13.30
2018-06-24T01:57:48.784Z,13.30
2018-06-24T02:00:17.893Z,13.30
2018-06-24T02:02:46.974Z,13.40
2018-06-24T02:05:16.067Z,13.30
2018-06-24T02:07:45.056Z,13.40
2018-06-24T02:10:14.054Z,13.40
2018-06-24T02:12:43.133Z,13.40
2018-06-24T02:15:12.674Z,13.40
2018-06-24T02:17:41.824Z,13.40
2018-06-24T02:20:10.856Z,13.40
2018-06-24T02:22:39.933Z,13.50
2018-06-24T02:25:08.957Z,13.50
2018-06-24T02:27:38.110Z,13.50
2018-06-24T02:30:07.220Z,13.60
2018-06-24T02:32:36.826Z,13.60
2018-06-24T02:35:05.964Z,13.60
2018-06-24T02:37:35.474Z,13.70
2018-06-24T02:40:04.637Z,13.70
2018-06-24T02:42:33.693Z,13.70
2018-06-24T02:45:02.735Z,13.70
2018-06-24T02:47:31.772Z,13.70
2018-06-24T02:50:00.796Z,13.70
2018-06-24T02:52:29.892Z,13.70
2018-06-24T02:54:58.985Z,13.70
2018-06-24T02:57:29.032Z,13.70
2018-06-24T02:59:58.095Z,13.80
2018-06-24T03:02:27.886Z,13.80
2018-06-24T03:04:57.012Z,13.80
2018-06-24T03:07:25.999Z,13.80
2018-06-24T03:09:55.014Z,13.80
2018-06-24T03:12:24.066Z,13.80
2018-06-24T03:14:53.100Z,13.80
2018-06-24T03:17:22.077Z,13.80
2018-06-24T03:19:51.087Z,13.80
2018-06-24T03:22:20.546Z,13.80
2018-06-24T03:24:49.680Z,13.70
2018-06-24T03:27:19.252Z,13.70
2018-06-24T03:29:48.882Z,13.70
2018-06-24T03:32:18.391Z,13.70
2018-06-24T03:34:47.372Z,13.70
2018-06-24T03:37:17.002Z,13.70
2018-06-24T03:39:46.062Z,13.70
2018-06-24T03:42:15.617Z,13.70
2018-06-24T03:44:45.106Z,13.70
2018-06-24T03:47:14.263Z,13.70
2018-06-24T03:49:43.277Z,13.70
2018-06-24T03:52:13.210Z,13.70
2018-06-24T03:54:42.381Z,13.70
2018-06-24T03:57:11.409Z,13.70
2018-06-24T03:59:40.468Z,13.70
2018-06-24T04:02:12.256Z,13.70
2018-06-24T04:04:41.274Z,13.70
2018-06-24T04:07:10.321Z,13.60
2018-06-24T04:09:40.208Z,13.60
2018-06-24T04:12:09.528Z,13.60
2018-06-24T04:14:39.224Z,13.60
2018-06-24T04:17:08.358Z,13.70
2018-06-24T04:19:37.732Z,13.70
2018-06-24T04:22:06.813Z,13.60
2018-06-24T04:24:36.027Z,13.70
2018-06-24T04:27:05.876Z,13.70
2018-06-24T04:29:35.529Z,13.70
2018-06-24T04:32:04.671Z,13.60
2018-06-24T04:34:33.728Z,13.70
2018-06-24T04:37:03.067Z,13.70
2018-06-24T04:39:32.136Z,13.70
2018-06-24T04:42:01.872Z,13.80
2018-06-24T04:44:30.920Z,13.80
2018-06-24T04:46:59.865Z,13.80
2018-06-24T04:49:29.463Z,13.80
2018-06-24T04:51:58.913Z,13.90
2018-06-24T04:54:29.425Z,13.90
2018-06-24T04:56:59.651Z,14.00
2018-06-24T04:59:29.078Z,14.00
2018-06-24T05:01:58.112Z,14.10
2018-06-24T05:04:27.176Z,14.20
2018-06-24T05:06:56.288Z,14.20
2018-06-24T05:09:25.457Z,14.30
2018-06-24T05:11:54.381Z,14.30
2018-06-24T05:14:24.624Z,14.40
2018-06-24T05:16:54.272Z,14.50
2018-06-24T05:19:23.452Z,14.40
2018-06-24T05:21:52.545Z,14.50
2018-06-24T05:24:22.200Z,14.50
2018-06-24T05:26:51.211Z,14.60
2018-06-24T05:29:20.302Z,14.60
2018-06-24T05:31:49.806Z,14.60
2018-06-24T05:34:18.865Z,14.70
2018-06-24T05:36:48.001Z,14.70
2018-06-24T05:39:17.021Z,14.70
2018-06-24T05:41:46.162Z,14.80
2018-06-24T05:44:15.896Z,14.80
2018-06-24T05:46:45.194Z,14.80
2018-06-24T05:49:14.694Z,14.80
2018-06-24T05:51:44.188Z,14.80
2018-06-24T05:54:13.326Z,14.90
2018-06-24T05:56:42.481Z,15.00
2018-06-24T05:59:11.579Z,15.00
2018-06-24T06:01:40.656Z,15.00
2018-06-24T06:04:10.280Z,15.10
2018-06-24T06:06:40.190Z,15.10
2018-06-24T06:09:11.352Z,15.20
2018-06-24T06:11:41.318Z,15.40
2018-06-24T06:14:23.772Z,15.50
2018-06-24T06:16:54.049Z,15.60
2018-06-24T06:19:23.100Z,15.70
2018-06-24T06:21:52.205Z,15.80
2018-06-24T06:24:21.309Z,16.00
2018-06-24T06:26:50.577Z,16.00
2018-06-24T06:29:19.798Z,16.00
2018-06-24T06:34:17.455Z,16.20
2018-06-24T06:36:47.225Z,16.30
2018-06-24T06:39:16.611Z,16.30
2018-06-24T06:41:46.964Z,16.50
2018-06-24T06:44:16.399Z,16.60
2018-06-24T06:46:52.301Z,16.60
2018-06-24T06:49:21.545Z,16.70
2018-06-24T06:51:50.513Z,16.70
2018-06-24T06:54:20.280Z,16.90
2018-06-24T06:56:49.417Z,17.00
2018-06-24T06:59:18.440Z,17.10
2018-06-24T07:01:47.537Z,17.10
2018-06-24T07:04:16.627Z,17.20
2018-06-24T07:06:45.628Z,17.30
2018-06-24T07:09:14.705Z,17.30
2018-06-24T07:11:43.824Z,17.30
2018-06-24T07:14:13.826Z,17.40
2018-06-24T07:16:43.450Z,17.50
2018-06-24T07:19:12.937Z,17.50
2018-06-24T07:21:42.052Z,17.60
2018-06-24T07:24:10.936Z,17.60
2018-06-24T07:26:40.870Z,17.70
2018-06-24T07:29:10.253Z,17.80
2018-06-24T07:31:39.555Z,17.90
2018-06-24T07:34:09.448Z,18.00
2018-06-24T07:36:38.705Z,18.10
2018-06-24T07:39:10.369Z,18.40
2018-06-24T07:41:40.040Z,18.40
2018-06-24T07:44:09.189Z,18.40
2018-06-24T07:46:39.236Z,18.50
2018-06-24T07:49:08.368Z,18.40
2018-06-24T07:51:38.156Z,18.40
2018-06-24T07:54:07.557Z,18.30
2018-06-24T07:56:36.664Z,18.30
2018-06-24T07:59:05.625Z,18.20
2018-06-24T08:01:34.731Z,18.10
2018-06-24T08:04:03.841Z,18.20
2018-06-24T08:06:33.628Z,18.30
2018-06-24T08:09:02.793Z,18.30
2018-06-24T08:11:39.602Z,18.30
2018-06-24T08:14:12.712Z,18.30
2018-06-24T08:16:42.068Z,18.30
2018-06-24T08:19:11.309Z,18.40
2018-06-24T08:21:40.978Z,18.40
2018-06-24T08:24:10.236Z,18.40
2018-06-24T08:26:40.169Z,18.60
2018-06-24T08:29:09.532Z,18.50
2018-06-24T08:31:38.676Z,18.60
2018-06-24T08:34:08.467Z,18.60
2018-06-24T08:36:37.611Z,18.70
2018-06-24T08:39:08.820Z,18.80
2018-06-24T08:41:37.613Z,18.70
2018-06-24T08:44:07.448Z,18.90
2018-06-24T08:46:37.245Z,19.20
2018-06-24T08:49:07.457Z,19.50
2018-06-24T08:51:36.708Z,19.70
2018-06-24T08:54:06.461Z,19.60
2018-06-24T08:56:35.693Z,19.60
2018-06-24T08:59:05.223Z,19.40
2018-06-24T09:01:34.964Z,19.30
2018-06-24T09:04:04.308Z,19.30
2018-06-24T09:06:33.540Z,19.30
2018-06-24T09:09:03.018Z,19.50
2018-06-24T09:11:32.285Z,19.70
2018-06-24T09:14:01.482Z,19.90
2018-06-24T09:18:59.605Z,20.30
2018-06-24T09:21:29.948Z,20.50
2018-06-24T09:23:59.025Z,20.40
2018-06-24T09:26:29.317Z,20.40
2018-06-24T09:28:59.052Z,20.30
2018-06-24T09:31:28.680Z,20.30
2018-06-24T09:33:57.974Z,20.20
2018-06-24T09:36:27.056Z,20.20
2018-06-24T09:38:56.842Z,20.50
2018-06-24T09:41:26.032Z,20.50
2018-06-24T09:43:55.276Z,20.70
2018-06-24T09:46:24.675Z,20.60
2018-06-24T09:48:53.758Z,20.70
2018-06-24T09:51:23.476Z,20.50
2018-06-24T09:53:53.620Z,20.50
2018-06-24T09:56:23.740Z,20.60
2018-06-24T09:58:52.937Z,20.60
2018-06-24T10:01:22.094Z,20.60
2018-06-24T10:03:52.583Z,20.70
2018-06-24T10:06:21.764Z,20.70
2018-06-24T10:08:51.432Z,20.80
2018-06-24T10:11:20.632Z,20.70
2018-06-24T10:13:50.672Z,20.80
2018-06-24T10:16:19.709Z,20.80
2018-06-24T10:18:49.220Z,21.00
2018-06-24T10:21:18.485Z,21.20
2018-06-24T10:23:47.636Z,21.40
2018-06-24T10:26:16.745Z,21.60
2018-06-24T10:28:45.866Z,21.90
2018-06-24T10:31:15.243Z,22.10
2018-06-24T10:33:45.293Z,22.20
2018-06-24T10:36:14.571Z,22.20
2018-06-24T10:38:44.171Z,22.30
2018-06-24T10:41:13.340Z,22.40
2018-06-24T10:43:42.489Z,22.50
2018-06-24T10:46:13.005Z,22.50
2018-06-24T10:48:42.485Z,22.30
2018-06-24T10:51:11.931Z,22.10
2018-06-24T10:56:10.454Z,22.20
2018-06-24T10:58:40.296Z,22.40
2018-06-24T11:01:10.574Z,22.50
2018-06-24T11:03:39.994Z,22.60
2018-06-24T11:06:09.451Z,22.80
2018-06-24T11:08:39.349Z,22.70
2018-06-24T11:11:08.469Z,22.70
2018-06-24T11:13:38.216Z,22.50
2018-06-24T11:16:07.884Z,22.10
2018-06-24T11:18:37.745Z,21.80
2018-06-24T11:21:07.847Z,21.60
2018-06-24T11:23:37.746Z,21.60
2018-06-24T11:26:07.562Z,21.60
2018-06-24T11:28:37.516Z,21.60
2018-06-24T11:31:07.846Z,21.70
2018-06-24T11:33:36.994Z,21.70
2018-06-24T11:36:06.268Z,21.80
2018-06-24T11:38:35.852Z,21.90
2018-06-24T11:41:04.964Z,21.70
2018-06-24T11:43:34.063Z,21.60
2018-06-24T11:46:03.349Z,21.70
2018-06-24T11:48:32.453Z,21.90
2018-06-24T11:51:01.566Z,22.00
2018-06-24T11:53:30.792Z,22.00
2018-06-24T11:56:00.048Z,21.90
2018-06-24T11:58:29.677Z,21.90
2018-06-24T12:00:58.836Z,21.80
2018-06-24T12:03:28.580Z,21.80
2018-06-24T12:05:57.745Z,21.90
2018-06-24T12:08:27.155Z,22.10
2018-06-24T12:10:56.678Z,22.20
2018-06-24T12:13:26.741Z,22.30
2018-06-24T12:15:56.595Z,22.40
2018-06-24T12:18:26.376Z,22.60
2018-06-24T12:20:56.039Z,22.80
2018-06-24T12:23:26.468Z,23.00
2018-06-24T12:25:57.633Z,23.10
2018-06-24T12:28:28.322Z,23.00
2018-06-24T12:30:58.129Z,22.90
2018-06-24T12:33:28.601Z,22.80
2018-06-24T12:35:58.372Z,22.90
2018-06-24T12:38:29.030Z,23.00
2018-06-24T12:40:58.723Z,23.00
2018-06-24T12:43:28.802Z,23.10
2018-06-24T12:45:58.287Z,23.00
2018-06-24T12:48:27.747Z,22.80
2018-06-24T12:50:56.895Z,22.90
2018-06-24T12:53:27.332Z,22.90
2018-06-24T12:55:56.597Z,22.70
2018-06-24T12:58:25.853Z,22.50
2018-06-24T13:00:55.484Z,22.80
2018-06-24T13:03:24.572Z,23.00
2018-06-24T13:05:54.008Z,23.20
2018-06-24T13:08:23.272Z,23.50
2018-06-24T13:10:52.645Z,23.50
2018-06-24T13:13:21.773Z,23.60
2018-06-24T13:15:50.936Z,23.60
2018-06-24T13:18:20.712Z,23.70
2018-06-24T13:20:50.103Z,23.70
2018-06-24T13:23:19.900Z,23.50
2018-06-24T13:25:49.632Z,23.30
2018-06-24T13:28:19.619Z,23.20
2018-06-24T13:30:48.797Z,23.30
2018-06-24T13:33:17.896Z,23.20
2018-06-24T13:38:15.764Z,23.20
2018-06-24T13:40:44.893Z,23.20
2018-06-24T13:43:14.042Z,23.10
2018-06-24T13:45:43.406Z,23.20
2018-06-24T13:48:13.686Z,23.30
2018-06-24T13:50:42.790Z,23.30
2018-06-24T13:53:11.933Z,23.20
2018-06-24T13:55:41.314Z,23.20
2018-06-24T13:58:10.385Z,23.30
2018-06-24T14:00:39.457Z,23.40
2018-06-24T14:03:08.579Z,23.20
2018-06-24T14:05:37.640Z,23.20
2018-06-24T14:08:06.981Z,23.20
2018-06-24T14:10:35.933Z,23.10
2018-06-24T14:13:05.625Z,23.00
2018-06-24T14:15:34.740Z,23.00
2018-06-24T14:18:04.553Z,22.80
2018-06-24T14:20:33.671Z,22.70
2018-06-24T14:23:03.942Z,22.70
2018-06-24T14:25:33.100Z,22.70
2018-06-24T14:28:02.679Z,22.80
2018-06-24T14:30:32.009Z,22.90
2018-06-24T14:33:01.084Z,23.00
2018-06-24T14:35:30.162Z,23.00
2018-06-24T14:37:59.699Z,23.10
2018-06-24T14:40:29.616Z,23.10
2018-06-24T14:42:58.803Z,23.20
2018-06-24T14:45:27.884Z,23.20
2018-06-24T14:47:57.160Z,23.20
2018-06-24T14:50:26.264Z,23.10
2018-06-24T14:52:55.451Z,23.10
2018-06-24T14:55:24.725Z,23.20
2018-06-24T14:57:53.774Z,23.00
2018-06-24T15:00:22.916Z,22.90
2018-06-24T15:02:51.961Z,22.90
2018-06-24T15:05:21.005Z,22.80
2018-06-24T15:07:50.051Z,22.60
2018-06-24T15:10:19.788Z,22.50
2018-06-24T15:12:49.068Z,22.40
2018-06-24T15:15:18.572Z,22.30
2018-06-24T15:17:47.828Z,22.30
2018-06-24T15:20:16.861Z,22.20
2018-06-24T15:22:45.940Z,22.20
2018-06-24T15:25:15.502Z,22.10
2018-06-24T15:27:45.449Z,22.00
2018-06-24T15:30:14.736Z,22.00
2018-06-24T15:32:44.096Z,22.00
2018-06-24T15:35:13.748Z,22.00
2018-06-24T15:37:43.454Z,22.00
2018-06-24T15:40:13.788Z,22.00
2018-06-24T15:42:43.420Z,22.00
2018-06-24T15:45:12.689Z,21.90
2018-06-24T15:47:43.249Z,21.90
2018-06-24T15:50:12.860Z,21.70
2018-06-24T15:52:41.996Z,21.70
2018-06-24T15:57:40.192Z,21.60
2018-06-24T16:00:09.564Z,21.50
2018-06-24T16:02:39.768Z,21.30
2018-06-24T16:05:10.234Z,21.30
2018-06-24T16:07:39.640Z,21.20
2018-06-24T16:10:08.793Z,21.20
2018-06-24T16:12:38.036Z,21.10
2018-06-24T16:15:07.440Z,21.10
2018-06-24T16:17:36.740Z,21.10
2018-06-24T16:20:06.002Z,21.10
2018-06-24T16:22:35.138Z,21.10
2018-06-24T16:25:04.463Z,21.10
2018-06-24T16:27:33.584Z,21.10
2018-06-24T16:30:02.798Z,21.20
2018-06-24T16:32:31.929Z,21.20
2018-06-24T16:35:01.012Z,21.20
2018-06-24T16:37:30.605Z,21.10
2018-06-24T16:39:59.657Z,21.10
2018-06-24T16:42:29.437Z,21.10
2018-06-24T16:44:58.574Z,21.10
2018-06-24T16:47:28.231Z,21.00
2018-06-24T16:49:57.549Z,21.00
2018-06-24T16:52:26.670Z,20.90
2018-06-24T16:54:56.304Z,20.70
2018-06-24T16:57:28.561Z,20.80
2018-06-24T16:59:58.252Z,20.80
2018-06-24T17:02:27.479Z,20.90
2018-06-24T17:04:56.548Z,21.00
2018-06-24T17:07:25.588Z,20.80
2018-06-24T17:09:55.045Z,20.70
2018-06-24T17:12:25.366Z,20.70
2018-06-24T17:14:54.493Z,20.70
2018-06-24T17:17:24.073Z,20.60
2018-06-24T17:19:53.254Z,20.60
2018-06-24T17:22:22.404Z,20.60
2018-06-24T17:24:51.734Z,20.60
2018-06-24T17:27:21.421Z,20.60
2018-06-24T17:32:20.505Z,20.50
2018-06-24T17:34:49.512Z,20.40
2018-06-24T17:37:18.603Z,20.30
2018-06-24T17:39:50.013Z,20.10
2018-06-24T17:42:19.204Z,20.10
2018-06-24T17:44:48.412Z,19.90
2018-06-24T17:47:17.827Z,19.80
2018-06-24T17:49:47.017Z,19.80
2018-06-24T17:52:16.660Z,19.70
2018-06-24T17:54:46.075Z,19.60
2018-06-24T17:57:17.106Z,19.60
2018-06-24T17:59:47.555Z,19.50
2018-06-24T18:02:16.741Z,19.40
2018-06-24T18:04:47.023Z,19.40
2018-06-24T18:09:46.047Z,19.30
2018-06-24T18:12:15.676Z,19.30
2018-06-24T18:14:45.146Z,19.20
2018-06-24T18:17:16.283Z,19.20
2018-06-24T18:19:46.439Z,19.20
2018-06-24T18:22:16.236Z,19.10
2018-06-24T18:24:45.712Z,19.00
2018-06-24T18:27:15.084Z,19.00
2018-06-24T18:29:44.158Z,18.90
2018-06-24T18:34:42.822Z,18.90
2018-06-24T18:37:12.123Z,18.80
2018-06-24T18:39:42.115Z,18.80
2018-06-24T18:42:12.108Z,18.70
2018-06-24T18:44:42.769Z,18.70
2018-06-24T18:47:14.442Z,18.70
2018-06-24T18:49:47.098Z,18.60
2018-06-24T18:52:19.393Z,18.60
2018-06-24T18:54:50.887Z,18.50
2018-06-24T18:57:40.901Z,18.50
2018-06-24T19:00:17.517Z,18.50
2018-06-24T19:02:47.648Z,18.40
2018-06-24T19:05:19.475Z,18.40
2018-06-24T19:08:04.066Z,18.40
2018-06-24T19:13:44.699Z,18.30
2018-06-24T19:16:44.946Z,18.30
2018-06-24T19:19:35.180Z,18.20
2018-06-24T19:22:04.581Z,18.20
2018-06-24T19:24:33.844Z,18.10
2018-06-24T19:27:03.104Z,18.10
2018-06-24T19:29:32.252Z,18.00
2018-06-24T19:32:01.654Z,18.00
2018-06-24T19:34:31.263Z,18.00
2018-06-24T19:37:00.387Z,18.00
2018-06-24T19:39:29.712Z,17.90
2018-06-24T19:42:00.918Z,17.90
2018-06-24T19:44:30.150Z,17.90
2018-06-24T19:46:59.572Z,17.80
2018-06-24T19:49:29.551Z,17.80
2018-06-24T19:51:58.988Z,17.80
2018-06-24T19:54:29.439Z,17.80
2018-06-24T19:56:58.900Z,17.70
2018-06-24T19:59:28.072Z,17.70
2018-06-24T20:01:57.438Z,17.70
2018-06-24T20:04:26.877Z,17.60
2018-06-24T20:06:56.264Z,17.60
2018-06-24T20:09:25.589Z,17.50
2018-06-24T20:11:54.868Z,17.50
2018-06-24T20:14:23.950Z,17.50
2018-06-24T20:16:53.144Z,17.40
2018-06-24T20:19:22.815Z,17.40
2018-06-24T20:21:51.969Z,17.40
2018-06-24T20:24:21.258Z,17.40
2018-06-24T20:26:51.188Z,17.30
2018-06-24T20:29:20.299Z,17.30
2018-06-24T20:31:49.386Z,17.20
2018-06-24T20:34:19.069Z,17.20
2018-06-24T20:36:49.084Z,17.10
2018-06-24T20:39:18.365Z,17.00
2018-06-24T20:41:47.506Z,17.00
2018-06-24T20:44:16.685Z,16.90
2018-06-24T20:46:45.904Z,16.90
2018-06-24T20:49:15.086Z,16.80
2018-06-24T20:54:14.684Z,16.70
2018-06-24T20:56:45.716Z,16.70
2018-06-24T20:59:15.085Z,16.70
2018-06-24T21:01:44.491Z,16.70
2018-06-24T21:04:14.337Z,16.60
2018-06-24T21:06:43.833Z,16.60
2018-06-24T21:09:13.155Z,16.50
2018-06-24T21:11:42.181Z,16.50
2018-06-24T21:14:11.475Z,16.50
2018-06-24T21:16:41.452Z,16.50
2018-06-24T21:19:10.865Z,16.50
2018-06-24T21:21:39.885Z,16.40
2018-06-24T21:24:08.979Z,16.40
2018-06-24T21:26:38.147Z,16.40
2018-06-24T21:29:07.388Z,16.40
2018-06-24T21:31:37.936Z,16.40
2018-06-24T21:34:08.386Z,16.40
2018-06-24T21:36:39.840Z,16.40
2018-06-24T21:39:10.216Z,16.30
2018-06-24T21:41:39.889Z,16.30
2018-06-24T21:44:10.189Z,16.30
2018-06-24T21:46:39.215Z,16.20
2018-06-24T21:49:08.715Z,16.20
2018-06-24T21:51:37.805Z,16.20
2018-06-24T21:54:07.589Z,16.20
2018-06-24T21:56:36.673Z,16.10
2018-06-24T21:59:06.183Z,16.10
2018-06-24T22:01:35.337Z,16.10
2018-06-24T22:04:04.620Z,16.10
2018-06-24T22:06:33.811Z,16.10
2018-06-24T22:09:03.013Z,16.10
2018-06-24T22:11:32.854Z,16.10
2018-06-24T22:14:02.038Z,16.10
2018-06-24T22:16:31.089Z,16.20
2018-06-24T22:19:00.379Z,16.10
2018-06-24T22:21:29.692Z,16.10
2018-06-24T22:23:59.037Z,16.10
2018-06-24T22:26:28.137Z,16.10
2018-06-24T22:28:57.228Z,16.10
2018-06-24T22:31:26.419Z,16.10
2018-06-24T22:33:55.728Z,16.00
2018-06-24T22:36:24.814Z,16.00
2018-06-24T22:38:54.830Z,16.00
2018-06-24T22:41:23.955Z,15.90
2018-06-24T22:43:53.039Z,15.90
2018-06-24T22:46:22.081Z,15.90
2018-06-24T22:48:51.223Z,15.90
2018-06-24T22:51:20.373Z,15.90
2018-06-24T22:53:49.493Z,15.80
2018-06-24T22:56:18.560Z,15.80
2018-06-24T22:58:58.764Z,15.70
2018-06-24T23:01:27.951Z,15.70
2018-06-24T23:03:56.917Z,15.70
2018-06-24T23:06:26.024Z,15.60
2018-06-24T23:08:55.440Z,15.60
2018-06-24T23:11:24.527Z,15.60
2018-06-24T23:13:53.651Z,15.60
2018-06-24T23:18:51.393Z,15.50
2018-06-24T23:21:20.361Z,15.50
2018-06-24T23:23:49.406Z,15.50
2018-06-24T23:26:18.876Z,15.50
2018-06-24T23:28:47.940Z,15.50
2018-06-24T23:31:16.990Z,15.50
2018-06-24T23:33:46.104Z,15.50
2018-06-24T23:36:15.176Z,15.50
2018-06-24T23:38:45.186Z,15.50
2018-06-24T23:41:14.279Z,15.50
2018-06-24T23:43:43.346Z,15.50
2018-06-24T23:46:12.993Z,15.50
2018-06-24T23:48:42.045Z,15.50
2018-06-24T23:51:11.180Z,15.40
2018-06-24T23:53:40.341Z,15.40
2018-06-24T23:56:09.791Z,15.40
2018-06-24T23:58:39.729Z,15.30
